sensor_id;sensor_type;location;lat;lon;timestamp;P1;durP1;ratioP1;P2;durP2;ratioP2
64669;SDS011;51080;51.690;5.174;2022-09-01T00:05:37;4.60;;;1.80;;
64669;SDS011;51080;51.690;5.174;2022-09-01T00:17:43;4.40;;;1.80;;
64669;SDS011;51080;51.690;5.174;2022-09-01T00:23:47;5.50;;;1.70;;
64669;SDS011;51080;51.690;5.174;2022-09-01T00:54:05;4.30;;;1.90;;
64669;SDS011;51080;51.690;5.174;2022-09-01T01:06:15;4.00;;;1.80;;
64669;SDS011;51080;51.690;5.174;2022-09-01T01:12:04;3.60;;;1.60;;
64669;SDS011;51080;51.690;5.174;2022-09-01T01:17:57;3.60;;;1.80;;
64669;SDS011;51080;51.690;5.174;2022-09-01T01:30:14;5.20;;;1.80;;
64669;SDS011;51080;51.690;5.174;2022-09-01T01:42:20;3.70;;;2.20;;
64669;SDS011;51080;51.690;5.174;2022-09-01T01:48:18;6.20;;;2.00;;
64669;SDS011;51080;51.690;5.174;2022-09-01T01:54:12;4.80;;;1.90;;
64669;SDS011;51080;51.690;5.174;2022-09-01T02:06:18;3.70;;;2.20;;
64669;SDS011;51080;51.690;5.174;2022-09-01T02:12:15;4.70;;;2.00;;
64669;SDS011;51080;51.690;5.174;2022-09-01T02:18:14;5.70;;;2.10;;
64669;SDS011;51080;51.690;5.174;2022-09-01T02:23:57;4.70;;;2.10;;
64669;SDS011;51080;51.690;5.174;2022-09-01T02:29:49;4.20;;;2.20;;
64669;SDS011;51080;51.690;5.174;2022-09-01T02:35:35;3.50;;;2.10;;
64669;SDS011;51080;51.690;5.174;2022-09-01T02:41:22;5.00;;;2.10;;
64669;SDS011;51080;51.690;5.174;2022-09-01T02:53:06;5.70;;;2.30;;
64669;SDS011;51080;51.690;5.174;2022-09-01T02:59:04;4.90;;;2.60;;
64669;SDS011;51080;51.690;5.174;2022-09-01T03:04:54;4.00;;;2.30;;
64669;SDS011;51080;51.690;5.174;2022-09-01T03:10:49;5.20;;;2.50;;
64669;SDS011;51080;51.690;5.174;2022-09-01T03:16:35;4.40;;;2.20;;
64669;SDS011;51080;51.690;5.174;2022-09-01T03:28:28;5.20;;;2.50;;
64669;SDS011;51080;51.690;5.174;2022-09-01T03:34:13;4.20;;;2.30;;
64669;SDS011;51080;51.690;5.174;2022-09-01T03:40:02;4.50;;;2.40;;
64669;SDS011;51080;51.690;5.174;2022-09-01T03:46:00;5.10;;;2.60;;
64669;SDS011;51080;51.690;5.174;2022-09-01T03:52:02;5.70;;;2.70;;
64669;SDS011;51080;51.690;5.174;2022-09-01T03:57:50;4.10;;;2.40;;
64669;SDS011;51080;51.690;5.174;2022-09-01T04:03:40;5.40;;;2.40;;
64669;SDS011;51080;51.690;5.174;2022-09-01T04:09:38;6.10;;;2.70;;
64669;SDS011;51080;51.690;5.174;2022-09-01T04:15:35;7.40;;;2.70;;
64669;SDS011;51080;51.690;5.174;2022-09-01T04:21:29;3.90;;;2.60;;
64669;SDS011;51080;51.690;5.174;2022-09-01T04:27:15;4.30;;;2.80;;
64669;SDS011;51080;51.690;5.174;2022-09-01T04:33:06;7.60;;;2.80;;
64669;SDS011;51080;51.690;5.174;2022-09-01T04:38:55;5.80;;;2.70;;
64669;SDS011;51080;51.690;5.174;2022-09-01T04:45:12;4.70;;;2.30;;
64669;SDS011;51080;51.690;5.174;2022-09-01T04:51:08;6.00;;;2.60;;
64669;SDS011;51080;51.690;5.174;2022-09-01T04:57:00;4.30;;;2.70;;
64669;SDS011;51080;51.690;5.174;2022-09-01T05:08:50;5.50;;;2.60;;
64669;SDS011;51080;51.690;5.174;2022-09-01T05:14:59;6.30;;;2.90;;
64669;SDS011;51080;51.690;5.174;2022-09-01T05:20:58;4.80;;;2.70;;
64669;SDS011;51080;51.690;5.174;2022-09-01T05:26:56;5.40;;;2.90;;
64669;SDS011;51080;51.690;5.174;2022-09-01T05:32:48;6.80;;;3.00;;
64669;SDS011;51080;51.690;5.174;2022-09-01T05:38:46;6.50;;;3.00;;
64669;SDS011;51080;51.690;5.174;2022-09-01T05:44:34;5.40;;;3.00;;
64669;SDS011;51080;51.690;5.174;2022-09-01T05:50:20;5.40;;;2.90;;
64669;SDS011;51080;51.690;5.174;2022-09-01T05:56:06;7.30;;;3.00;;
64669;SDS011;51080;51.690;5.174;2022-09-01T06:01:57;5.40;;;2.80;;
64669;SDS011;51080;51.690;5.174;2022-09-01T06:07:48;6.20;;;3.10;;
64669;SDS011;51080;51.690;5.174;2022-09-01T06:13:34;10.20;;;3.40;;
64669;SDS011;51080;51.690;5.174;2022-09-01T06:19:31;7.00;;;3.30;;
64669;SDS011;51080;51.690;5.174;2022-09-01T06:25:24;8.80;;;3.10;;
64669;SDS011;51080;51.690;5.174;2022-09-01T06:31:18;8.00;;;3.30;;
64669;SDS011;51080;51.690;5.174;2022-09-01T06:37:02;5.90;;;3.00;;
64669;SDS011;51080;51.690;5.174;2022-09-01T06:48:54;8.60;;;3.30;;
64669;SDS011;51080;51.690;5.174;2022-09-01T06:54:45;5.00;;;3.10;;
64669;SDS011;51080;51.690;5.174;2022-09-01T07:00:42;7.50;;;3.50;;
64669;SDS011;51080;51.690;5.174;2022-09-01T07:06:43;7.00;;;3.40;;
64669;SDS011;51080;51.690;5.174;2022-09-01T07:12:49;6.40;;;3.10;;
64669;SDS011;51080;51.690;5.174;2022-09-01T07:18:38;7.10;;;2.90;;
64669;SDS011;51080;51.690;5.174;2022-09-01T07:24:35;5.70;;;2.50;;
64669;SDS011;51080;51.690;5.174;2022-09-01T07:30:25;6.80;;;2.50;;
64669;SDS011;51080;51.690;5.174;2022-09-01T07:36:20;5.30;;;2.40;;
64669;SDS011;51080;51.690;5.174;2022-09-01T07:42:15;7.00;;;2.70;;
64669;SDS011;51080;51.690;5.174;2022-09-01T07:48:19;10.40;;;2.90;;
64669;SDS011;51080;51.690;5.174;2022-09-01T07:54:05;6.80;;;2.30;;
64669;SDS011;51080;51.690;5.174;2022-09-01T07:59:59;5.50;;;2.20;;
64669;SDS011;51080;51.690;5.174;2022-09-01T08:06:03;7.00;;;2.30;;
64669;SDS011;51080;51.690;5.174;2022-09-01T08:11:51;5.70;;;2.40;;
64669;SDS011;51080;51.690;5.174;2022-09-01T08:17:38;5.00;;;2.30;;
64669;SDS011;51080;51.690;5.174;2022-09-01T08:23:29;6.70;;;2.60;;
64669;SDS011;51080;51.690;5.174;2022-09-01T08:29:22;5.80;;;2.70;;
64669;SDS011;51080;51.690;5.174;2022-09-01T08:35:19;6.60;;;2.60;;
64669;SDS011;51080;51.690;5.174;2022-09-01T08:47:33;7.90;;;2.60;;
64669;SDS011;51080;51.690;5.174;2022-09-01T08:59:31;4.60;;;2.00;;
64669;SDS011;51080;51.690;5.174;2022-09-01T09:05:25;8.30;;;2.40;;
64669;SDS011;51080;51.690;5.174;2022-09-01T09:17:34;6.60;;;1.90;;
64669;SDS011;51080;51.690;5.174;2022-09-01T09:23:32;4.90;;;1.90;;
64669;SDS011;51080;51.690;5.174;2022-09-01T09:29:28;7.90;;;1.90;;
64669;SDS011;51080;51.690;5.174;2022-09-01T09:41:22;4.00;;;1.60;;
64669;SDS011;51080;51.690;5.174;2022-09-01T09:53:26;2.40;;;1.30;;
64669;SDS011;51080;51.690;5.174;2022-09-01T09:59:26;4.60;;;1.50;;
64669;SDS011;51080;51.690;5.174;2022-09-01T10:11:38;3.80;;;1.60;;
64669;SDS011;51080;51.690;5.174;2022-09-01T10:23:32;5.90;;;1.30;;
64669;SDS011;51080;51.690;5.174;2022-09-01T10:29:23;5.50;;;1.50;;
64669;SDS011;51080;51.690;5.174;2022-09-01T10:35:20;3.40;;;1.50;;
64669;SDS011;51080;51.690;5.174;2022-09-01T10:47:34;4.70;;;1.20;;
64669;SDS011;51080;51.690;5.174;2022-09-01T10:59:43;2.20;;;1.00;;
64669;SDS011;51080;51.690;5.174;2022-09-01T11:11:48;3.10;;;1.20;;
64669;SDS011;51080;51.690;5.174;2022-09-01T11:23:41;4.90;;;1.30;;
64669;SDS011;51080;51.690;5.174;2022-09-01T11:35:44;5.00;;;1.20;;
64669;SDS011;51080;51.690;5.174;2022-09-01T11:53:47;3.40;;;1.10;;
64669;SDS011;51080;51.690;5.174;2022-09-01T11:59:36;5.80;;;1.30;;
64669;SDS011;51080;51.690;5.174;2022-09-01T12:05:27;5.10;;;1.00;;
64669;SDS011;51080;51.690;5.174;2022-09-01T12:11:32;2.40;;;1.00;;
64669;SDS011;51080;51.690;5.174;2022-09-01T12:17:18;2.60;;;0.90;;
64669;SDS011;51080;51.690;5.174;2022-09-01T12:23:24;3.00;;;1.00;;
64669;SDS011;51080;51.690;5.174;2022-09-01T12:29:17;5.30;;;1.10;;
64669;SDS011;51080;51.690;5.174;2022-09-01T12:35:13;3.10;;;1.00;;
64669;SDS011;51080;51.690;5.174;2022-09-01T12:53:33;4.50;;;1.10;;
64669;SDS011;51080;51.690;5.174;2022-09-01T12:59:27;1.80;;;1.00;;
64669;SDS011;51080;51.690;5.174;2022-09-01T13:05:32;5.90;;;1.00;;
64669;SDS011;51080;51.690;5.174;2022-09-01T13:11:26;4.20;;;1.00;;
64669;SDS011;51080;51.690;5.174;2022-09-01T13:17:17;2.80;;;1.00;;
64669;SDS011;51080;51.690;5.174;2022-09-01T13:23:06;2.50;;;0.90;;
64669;SDS011;51080;51.690;5.174;2022-09-01T13:28:54;3.60;;;1.40;;
64669;SDS011;51080;51.690;5.174;2022-09-01T13:35:01;5.40;;;2.00;;
64669;SDS011;51080;51.690;5.174;2022-09-01T13:40:57;2.00;;;1.30;;
64669;SDS011;51080;51.690;5.174;2022-09-01T13:46:50;5.20;;;1.00;;
64669;SDS011;51080;51.690;5.174;2022-09-01T13:52:49;2.70;;;0.90;;
64669;SDS011;51080;51.690;5.174;2022-09-01T13:59:01;2.00;;;0.80;;
64669;SDS011;51080;51.690;5.174;2022-09-01T14:04:56;5.40;;;1.20;;
64669;SDS011;51080;51.690;5.174;2022-09-01T14:10:56;3.90;;;1.10;;
64669;SDS011;51080;51.690;5.174;2022-09-01T14:17:00;2.90;;;1.10;;
64669;SDS011;51080;51.690;5.174;2022-09-01T14:23:03;1.90;;;0.90;;
64669;SDS011;51080;51.690;5.174;2022-09-01T14:34:50;4.90;;;1.20;;
64669;SDS011;51080;51.690;5.174;2022-09-01T14:40:47;3.20;;;1.00;;
64669;SDS011;51080;51.690;5.174;2022-09-01T14:46:41;6.30;;;1.10;;
64669;SDS011;51080;51.690;5.174;2022-09-01T14:52:40;2.10;;;1.10;;
64669;SDS011;51080;51.690;5.174;2022-09-01T14:58:43;3.80;;;1.00;;
64669;SDS011;51080;51.690;5.174;2022-09-01T15:11:01;3.10;;;0.80;;
64669;SDS011;51080;51.690;5.174;2022-09-01T15:17:05;2.40;;;0.90;;
64669;SDS011;51080;51.690;5.174;2022-09-01T15:23:07;2.90;;;0.90;;
64669;SDS011;51080;51.690;5.174;2022-09-01T15:29:01;5.70;;;1.00;;
64669;SDS011;51080;51.690;5.174;2022-09-01T15:34:54;4.40;;;1.10;;
64669;SDS011;51080;51.690;5.174;2022-09-01T15:40:44;3.10;;;0.90;;
64669;SDS011;51080;51.690;5.174;2022-09-01T15:46:33;3.70;;;1.30;;
64669;SDS011;51080;51.690;5.174;2022-09-01T15:52:25;2.50;;;0.90;;
64669;SDS011;51080;51.690;5.174;2022-09-01T15:58:22;3.00;;;1.00;;
64669;SDS011;51080;51.690;5.174;2022-09-01T16:04:29;5.60;;;1.20;;
64669;SDS011;51080;51.690;5.174;2022-09-01T16:10:21;2.70;;;1.20;;
64669;SDS011;51080;51.690;5.174;2022-09-01T16:28:48;3.10;;;1.10;;
64669;SDS011;51080;51.690;5.174;2022-09-01T16:34:43;3.70;;;1.30;;
64669;SDS011;51080;51.690;5.174;2022-09-01T16:59:46;14.40;;;2.30;;
64669;SDS011;51080;51.690;5.174;2022-09-01T17:05:59;7.40;;;1.60;;
64669;SDS011;51080;51.690;5.174;2022-09-01T17:12:13;6.00;;;1.70;;
64669;SDS011;51080;51.690;5.174;2022-09-01T17:18:28;46.00;;;8.20;;
64669;SDS011;51080;51.690;5.174;2022-09-01T17:24:49;8.80;;;2.10;;
64669;SDS011;51080;51.690;5.174;2022-09-01T17:31:03;11.30;;;2.20;;
64669;SDS011;51080;51.690;5.174;2022-09-01T17:37:28;9.40;;;2.40;;
64669;SDS011;51080;51.690;5.174;2022-09-01T17:55:53;11.80;;;2.60;;
64669;SDS011;51080;51.690;5.174;2022-09-01T18:14:34;13.30;;;2.60;;
64669;SDS011;51080;51.690;5.174;2022-09-01T18:26:36;15.90;;;3.20;;
64669;SDS011;51080;51.690;5.174;2022-09-01T18:51:45;21.20;;;3.60;;
64669;SDS011;51080;51.690;5.174;2022-09-01T18:57:42;15.50;;;2.50;;
64669;SDS011;51080;51.690;5.174;2022-09-01T19:09:48;10.20;;;2.60;;
64669;SDS011;51080;51.690;5.174;2022-09-01T19:15:57;13.40;;;2.70;;
64669;SDS011;51080;51.690;5.174;2022-09-01T19:21:57;20.70;;;3.50;;
64669;SDS011;51080;51.690;5.174;2022-09-01T19:27:52;14.80;;;2.80;;
64669;SDS011;51080;51.690;5.174;2022-09-01T19:33:47;16.20;;;3.10;;
64669;SDS011;51080;51.690;5.174;2022-09-01T19:39:43;10.30;;;2.50;;
64669;SDS011;51080;51.690;5.174;2022-09-01T20:03:44;3.80;;;1.60;;
64669;SDS011;51080;51.690;5.174;2022-09-01T20:21:46;6.40;;;1.80;;
64669;SDS011;51080;51.690;5.174;2022-09-01T20:27:52;6.60;;;1.50;;
64669;SDS011;51080;51.690;5.174;2022-09-01T20:34:02;6.10;;;1.50;;
64669;SDS011;51080;51.690;5.174;2022-09-01T20:40:08;5.30;;;1.70;;
64669;SDS011;51080;51.690;5.174;2022-09-01T20:45:58;10.70;;;1.70;;
64669;SDS011;51080;51.690;5.174;2022-09-01T20:51:51;5.00;;;1.50;;
64669;SDS011;51080;51.690;5.174;2022-09-01T21:22:09;4.10;;;1.50;;
64669;SDS011;51080;51.690;5.174;2022-09-01T21:27:58;4.10;;;1.60;;
64669;SDS011;51080;51.690;5.174;2022-09-01T21:33:48;3.20;;;1.60;;
64669;SDS011;51080;51.690;5.174;2022-09-01T21:39:39;5.50;;;1.70;;
64669;SDS011;51080;51.690;5.174;2022-09-01T21:45:23;4.30;;;1.40;;
64669;SDS011;51080;51.690;5.174;2022-09-01T21:51:10;4.90;;;1.40;;
64669;SDS011;51080;51.690;5.174;2022-09-01T21:56:59;4.10;;;1.40;;
64669;SDS011;51080;51.690;5.174;2022-09-01T22:02:46;4.50;;;1.70;;
64669;SDS011;51080;51.690;5.174;2022-09-01T22:08:33;3.30;;;1.50;;
64669;SDS011;51080;51.690;5.174;2022-09-01T22:14:27;6.70;;;1.70;;
64669;SDS011;51080;51.690;5.174;2022-09-01T22:20:17;3.20;;;1.40;;
64669;SDS011;51080;51.690;5.174;2022-09-01T22:26:04;4.30;;;1.50;;
64669;SDS011;51080;51.690;5.174;2022-09-01T22:31:50;5.00;;;1.60;;
64669;SDS011;51080;51.690;5.174;2022-09-01T22:37:46;4.90;;;1.40;;
64669;SDS011;51080;51.690;5.174;2022-09-01T22:43:35;5.70;;;1.80;;
64669;SDS011;51080;51.690;5.174;2022-09-01T22:49:20;3.90;;;1.50;;
64669;SDS011;51080;51.690;5.174;2022-09-01T22:55:06;8.40;;;1.70;;
64669;SDS011;51080;51.690;5.174;2022-09-01T23:00:57;3.30;;;1.50;;
64669;SDS011;51080;51.690;5.174;2022-09-01T23:06:44;4.60;;;1.70;;
64669;SDS011;51080;51.690;5.174;2022-09-01T23:12:33;3.00;;;1.60;;
64669;SDS011;51080;51.690;5.174;2022-09-01T23:18:19;3.80;;;1.60;;
64669;SDS011;51080;51.690;5.174;2022-09-01T23:24:09;3.90;;;1.50;;
64669;SDS011;51080;51.690;5.174;2022-09-01T23:29:55;4.10;;;1.50;;
64669;SDS011;51080;51.690;5.174;2022-09-01T23:35:45;3.90;;;1.60;;
64669;SDS011;51080;51.690;5.174;2022-09-01T23:47:59;3.70;;;1.60;;
64669;SDS011;51080;51.690;5.174;2022-09-01T23:53:46;4.10;;;1.30;;
64669;SDS011;51080;51.690;5.174;2022-09-01T23:59:32;3.30;;;1.40;;
